Time;durP1;ratioP1;P1;durP2;ratioP2;P2;SDS_P1;SDS_P2;PMS_P1;PMS_P2;Temp;Humidity;BMP_temperature;BMP_pressure;BME280_temperature;BME280_humidity;BME280_pressure;Samples;Min_cycle;Max_cycle;Signal;HPM_P1;HPM_P2
2024/01/06 00:09:49;;;;;;;13.10;8.10;;;;;;;-2.36;100.00;98633.79;434383;1259;127093;-62
2024/01/06 00:19:55;;;;;;;11.10;6.90;;;;;;;-2.37;100.00;98629.52;433733;1257;141246;-62
2024/01/06 00:29:59;;;;;;;;;;;;;;;-2.38;100.00;98625.45;433905;1257;139581;-62
2024/01/06 00:40:06;;;;;;;11.50;7.30;;;;;;;-2.33;100.00;98634.75;433472;1256;127229;-62
2024/01/06 00:50:12;;;;;;;9.90;8.10;;;;;;;-2.32;100.00;98640.89;437109;1258;139924;-63
2024/01/06 01:00:18;;;;;;;7.80;6.20;;;;;;;-2.36;100.00;98648.88;433563;1254;139836;-63
2024/01/06 01:10:23;;;;;;;;;;;;;;;-2.39;100.00;98649.46;433521;1259;139749;-62
2024/01/06 01:20:28;;;;;;;8.10;6.90;;;;;;;-2.38;100.00;98650.83;433704;1257;125986;-62
2024/01/06 01:30:34;;;;;;;10.50;7.40;;;;;;;-2.41;100.00;98656.02;433682;1260;141004;-63
2024/01/06 01:40:40;;;;;;;9.50;7.70;;;;;;;-2.46;100.00;98655.64;433530;1254;197822;-62
2024/01/06 01:50:46;;;;;;;12.60;9.50;;;;;;;-2.51;100.00;98656.28;433381;1258;140903;-64
2024/01/06 02:00:53;;;;;;;12.80;10.10;;;;;;;-2.61;100.00;98657.23;433625;1258;139375;-62
2024/01/06 02:10:59;;;;;;;17.40;13.20;;;;;;;-2.68;100.00;98656.71;433583;1256;139801;-62
2024/01/06 02:21:07;;;;;;;20.20;14.80;;;;;;;-2.73;100.00;98655.98;433544;1260;140107;-63
2024/01/06 02:31:13;;;;;;;20.50;17.30;;;;;;;-2.73;100.00;98646.56;433286;1259;409334;-63
2024/01/06 02:41:17;;;;;;;;;;;;;;;-2.76;100.00;98638.39;433491;1254;140577;-63
2024/01/06 02:51:23;;;;;;;16.50;13.10;;;;;;;-2.81;100.00;98639.55;439880;1255;126583;-64
2024/01/06 03:01:27;;;;;;;;;;;;;;;-2.77;100.00;98648.54;433597;1258;140064;-62
2024/01/06 03:11:33;;;;;;;17.00;13.10;;;;;;;-2.80;100.00;98645.35;437523;1255;125574;-63
2024/01/06 03:21:39;;;;;;;19.60;14.10;;;;;;;-2.77;100.00;98632.29;433189;1254;149297;-62
2024/01/06 03:31:44;;;;;;;;;;;;;;;-2.79;100.00;98626.47;433292;1260;139910;-63
2024/01/06 03:41:51;;;;;;;19.70;14.90;;;;;;;-2.82;100.00;98638.39;435556;1256;126416;-63
2024/01/06 03:51:56;;;;;;;21.10;15.20;;;;;;;-2.81;100.00;98660.29;433874;1255;139854;-63
2024/01/06 04:02:01;;;;;;;;;;;;;;;-2.80;100.00;98649.99;433626;1254;140339;-63
2024/01/06 04:12:09;;;;;;;19.10;14.60;;;;;;;-2.82;100.00;98637.01;433322;1259;125794;-63
2024/01/06 04:22:15;;;;;;;19.60;14.50;;;;;;;-2.83;100.00;98636.52;439917;1254;141045;-63
2024/01/06 04:32:19;;;;;;;;;;;;;;;-2.83;100.00;98634.14;433454;1257;141374;-63
2024/01/06 04:42:25;;;;;;;18.70;14.80;;;;;;;-2.81;100.00;98640.92;433484;1254;126237;-63
2024/01/06 04:52:29;;;;;;;;;;;;;;;-2.84;100.00;98630.37;433358;1259;140151;-63
2024/01/06 05:02:35;;;;;;;21.40;14.20;;;;;;;-2.86;100.00;98622.91;433343;1258;127061;-62
2024/01/06 05:12:39;;;;;;;;;;;;;;;-2.86;100.00;98629.39;434601;1258;139785;-62
2024/01/06 05:22:45;;;;;;;24.00;17.30;;;;;;;-2.86;100.00;98646.02;433278;1258;126566;-63
2024/01/06 05:32:51;;;;;;;19.70;14.20;;;;;;;-2.84;100.00;98660.02;433468;1258;141335;-63
2024/01/06 05:42:57;;;;;;;18.30;13.60;;;;;;;-2.83;100.00;98666.67;433626;1255;140296;-65
2024/01/06 05:53:03;;;;;;;19.90;13.90;;;;;;;-2.77;100.00;98679.36;433445;1254;140212;-62
2024/01/06 06:03:07;;;;;;;;;;;;;;;-2.73;100.00;98694.17;433898;1258;140901;-66
2024/01/06 06:13:13;;;;;;;21.90;15.50;;;;;;;-2.75;100.00;98692.70;433475;1258;126595;-63
2024/01/06 06:23:19;;;;;;;21.80;15.30;;;;;;;-2.76;100.00;98701.80;433486;1257;141023;-63
2024/01/06 06:33:25;;;;;;;21.50;15.00;;;;;;;-2.78;100.00;98712.29;435275;1255;142067;-62
2024/01/06 06:43:31;;;;;;;16.20;13.30;;;;;;;-2.77;100.00;98734.05;434927;1255;140699;-62
2024/01/06 06:53:37;;;;;;;21.30;15.20;;;;;;;-2.80;100.00;98736.33;433304;1254;141141;-63
2024/01/06 07:03:43;;;;;;;20.70;14.30;;;;;;;-2.78;100.00;98741.59;433357;1254;139829;-63
2024/01/06 07:13:47;;;;;;;;;;;;;;;-2.78;100.00;98750.14;433294;1254;140328;-62
2024/01/06 07:23:53;;;;;;;20.10;13.90;;;;;;;-2.75;100.00;98750.09;433566;1258;125884;-63
2024/01/06 07:33:59;;;;;;;17.70;13.10;;;;;;;-2.71;100.00;98752.55;433082;1258;140949;-64
2024/01/06 07:44:05;;;;;;;21.10;14.60;;;;;;;-2.69;100.00;98758.67;433940;1258;141206;-62
2024/01/06 07:54:11;;;;;;;;;;;;;;;-2.62;100.00;98771.73;435911;1254;139785;-63
2024/01/06 08:04:17;;;;;;;18.00;13.20;;;;;;;-2.54;100.00;98790.39;433311;1256;127344;-62
2024/01/06 08:14:23;;;;;;;17.20;13.20;;;;;;;-2.50;100.00;98800.08;433389;1258;139834;-63
2024/01/06 08:24:30;;;;;;;16.90;13.30;;;;;;;-2.43;100.00;98808.64;433776;1254;142149;-63
2024/01/06 08:34:35;;;;;;;18.60;14.10;;;;;;;-2.38;100.00;98821.70;433568;1254;140508;-63
2024/01/06 08:44:43;;;;;;;16.30;13.30;;;;;;;-2.36;100.00;98828.87;433505;1256;140116;-63
2024/01/06 08:54:49;;;;;;;15.80;11.70;;;;;;;-2.37;100.00;98840.05;434751;1255;139908;-63
2024/01/06 09:04:55;;;;;;;14.30;11.60;;;;;;;-2.46;100.00;98840.23;433408;1258;141510;-63
2024/01/06 09:15:01;;;;;;;17.50;13.30;;;;;;;-2.46;100.00;98843.16;433506;1256;140653;-63
2024/01/06 09:25:09;;;;;;;14.60;12.70;;;;;;;-2.43;100.00;98859.36;433562;1256;141293;-62
2024/01/06 09:35:15;;;;;;;15.60;12.50;;;;;;;-2.47;100.00;98863.41;437665;1255;141271;-64
2024/01/06 09:45:20;;;;;;;;;;;;;;;-2.45;100.00;98870.73;433189;1255;140608;-63
2024/01/06 09:55:28;;;;;;;14.80;11.40;;;;;;;-2.45;100.00;98881.86;433494;1258;126402;-62
2024/01/06 10:05:34;;;;;;;14.20;11.60;;;;;;;-2.50;100.00;98879.77;433278;1257;140792;-62
2024/01/06 10:15:40;;;;;;;12.90;10.40;;;;;;;-2.49;100.00;98889.00;433253;1259;139839;-63
2024/01/06 10:25:45;;;;;;;17.40;12.20;;;;;;;-2.44;100.00;98888.73;433270;1258;139742;-63
2024/01/06 10:35:51;;;;;;;18.00;14.10;;;;;;;-2.45;100.00;98890.09;433355;1258;141850;-62
2024/01/06 10:45:59;;;;;;;13.80;11.20;;;;;;;-2.50;100.00;98897.09;433170;1258;140668;-62
2024/01/06 10:56:07;;;;;;;16.10;12.90;;;;;;;-2.48;100.00;98896.00;435069;1254;141331;-62
2024/01/06 11:06:14;;;;;;;15.50;13.00;;;;;;;-2.45;100.00;98893.52;435808;1258;140001;-62
2024/01/06 11:16:36;;;;;;;16.40;12.50;;;;;;;-2.45;100.00;98883.07;433063;1256;141199;-64
2024/01/06 11:26:45;;;;;;;16.80;12.00;;;;;;;-2.42;100.00;98883.20;433270;1256;140503;-62
2024/01/06 11:36:51;;;;;;;17.50;12.60;;;;;;;-2.42;100.00;98886.10;434508;1258;141003;-62
2024/01/06 11:46:57;;;;;;;;;;;;;;;-2.47;100.00;98899.23;437098;1258;140563;-63
2024/01/06 11:57:04;;;;;;;17.90;13.00;;;;;;;-2.50;100.00;98897.75;433218;1256;127173;-62
2024/01/06 12:07:14;;;;;;;18.40;13.10;;;;;;;-2.51;100.00;98903.77;433231;1256;141475;-63
2024/01/06 12:17:24;;;;;;;14.80;12.10;;;;;;;-2.53;100.00;98904.16;438375;1256;139870;-60
2024/01/06 12:27:30;;;;;;;19.10;13.60;;;;;;;-2.55;100.00;98913.11;433706;1258;140496;-64
2024/01/06 12:37:37;;;;;;;19.70;13.80;;;;;;;-2.52;100.00;98924.02;433806;1256;139420;-62
2024/01/06 12:47:47;;;;;;;21.70;16.10;;;;;;;-2.55;100.00;98928.02;433635;1258;141107;-63
2024/01/06 12:57:53;;;;;;;24.40;16.30;;;;;;;-2.52;100.00;98929.17;436435;1258;140558;-63
2024/01/06 13:08:01;;;;;;;26.50;19.30;;;;;;;-2.50;100.00;98940.44;433712;1258;140109;-62
2024/01/06 13:18:08;;;;;;;22.70;18.30;;;;;;;-2.53;100.00;98952.84;434738;1258;141157;-63
2024/01/06 13:28:14;;;;;;;21.60;15.60;;;;;;;-2.55;100.00;98962.30;433622;1258;139894;-62
2024/01/06 13:38:19;;;;;;;;;;;;;;;-2.59;100.00;98970.44;433415;1258;140152;-62
2024/01/06 13:48:25;;;;;;;21.10;16.80;;;;;;;-2.73;100.00;98964.21;433611;1256;126918;-63
2024/01/06 13:58:31;;;;;;;16.50;12.90;;;;;;;-2.84;100.00;98977.27;433341;1256;140685;-62
2024/01/06 14:08:36;;;;;;;19.20;13.90;;;;;;;-2.91;100.00;98981.16;433284;1258;139651;-63
2024/01/06 14:18:42;;;;;;;18.70;15.20;;;;;;;-3.00;100.00;98993.65;434174;1256;142038;-63
2024/01/06 14:28:49;;;;;;;17.40;13.70;;;;;;;-3.06;100.00;99002.69;433672;1258;185034;-62
2024/01/06 14:38:54;;;;;;;17.60;13.60;;;;;;;-3.15;100.00;99011.38;434287;1256;141018;-63
2024/01/06 14:49:01;;;;;;;19.50;15.20;;;;;;;-3.21;100.00;99023.31;434014;1256;139746;-62
2024/01/06 14:59:07;;;;;;;19.00;16.70;;;;;;;-3.25;100.00;99039.45;434037;1259;141254;-62
2024/01/06 15:09:13;;;;;;;18.50;14.80;;;;;;;-3.28;100.00;99050.14;434022;1258;140353;-62
2024/01/06 15:19:19;;;;;;;20.80;15.70;;;;;;;-3.30;100.00;99060.59;436657;1258;140030;-62
2024/01/06 15:29:25;;;;;;;23.20;17.40;;;;;;;-3.31;100.00;99061.63;434181;1258;140167;-62
2024/01/06 15:39:32;;;;;;;21.80;16.10;;;;;;;-3.34;100.00;99066.98;439799;1257;141550;-63
2024/01/06 15:49:38;;;;;;;23.30;17.20;;;;;;;-3.37;100.00;99074.23;434060;1259;140136;-62
2024/01/06 15:59:44;;;;;;;23.80;15.00;;;;;;;-3.41;100.00;99073.44;434085;1259;141354;-62
2024/01/06 16:09:50;;;;;;;19.30;16.50;;;;;;;-3.43;100.00;99077.41;434132;1258;141235;-63
2024/01/06 16:19:57;;;;;;;19.30;15.20;;;;;;;-3.45;100.00;99082.22;442638;1254;139723;-62
2024/01/06 16:30:04;;;;;;;20.60;14.80;;;;;;;-3.41;100.00;99099.45;439753;1256;140667;-63
2024/01/06 16:40:11;;;;;;;21.30;16.20;;;;;;;-3.42;100.00;99104.75;434014;1258;139683;-63
2024/01/06 16:50:18;;;;;;;19.70;13.60;;;;;;;-3.48;100.00;99113.58;435779;1254;141079;-63
2024/01/06 17:00:24;;;;;;;17.50;13.20;;;;;;;-3.54;100.00;99124.96;441552;1258;139933;-62
2024/01/06 17:10:30;;;;;;;16.90;12.60;;;;;;;-3.62;100.00;99144.91;434539;1258;140527;-64
2024/01/06 17:20:38;;;;;;;15.60;12.10;;;;;;;-3.69;100.00;99150.30;434048;1255;140984;-62
2024/01/06 17:30:44;;;;;;;13.80;11.50;;;;;;;-3.73;100.00;99157.20;437041;1259;139806;-62
2024/01/06 17:40:50;;;;;;;12.90;11.50;;;;;;;-3.82;100.00;99160.21;435629;1259;140032;-63
2024/01/06 17:50:56;;;;;;;15.50;10.40;;;;;;;-3.93;100.00;99175.39;433919;1259;140661;-63
2024/01/06 18:01:02;;;;;;;14.20;11.40;;;;;;;-4.00;100.00;99187.45;434263;1259;139714;-65
2024/01/06 18:11:08;;;;;;;12.70;9.70;;;;;;;-4.08;100.00;99201.55;434295;1259;139612;-71
2024/01/06 18:21:14;;;;;;;15.60;10.30;;;;;;;-4.12;100.00;99199.02;433859;1258;140141;-71
2024/01/06 18:31:20;;;;;;;16.10;10.80;;;;;;;-4.11;100.00;99202.77;434516;1259;140371;-70
2024/01/06 18:41:26;;;;;;;14.00;9.50;;;;;;;-4.06;100.00;99207.86;434741;1258;140417;-71
2024/01/06 18:51:36;;;;;;;10.90;8.80;;;;;;;-4.05;100.00;99210.08;435602;1254;139616;-72
2024/01/06 19:01:43;;;;;;;16.80;9.20;;;;;;;-4.04;100.00;99216.55;435372;1258;141795;-70
2024/01/06 19:11:50;;;;;;;13.50;8.80;;;;;;;-4.03;100.00;99216.04;434428;1259;141037;-72
2024/01/06 19:21:56;;;;;;;10.30;8.40;;;;;;;-4.03;100.00;99220.48;434866;1260;140229;-66
2024/01/06 19:32:02;;;;;;;7.60;6.80;;;;;;;-4.01;100.00;99219.61;441273;1258;139444;-67
2024/01/06 19:42:12;;;;;;;9.80;6.80;;;;;;;-4.03;100.00;99232.28;434069;1260;139427;-68
2024/01/06 19:52:18;;;;;;;11.10;7.00;;;;;;;-4.04;100.00;99236.56;434111;1261;139603;-67
2024/01/06 20:02:24;;;;;;;7.80;6.10;;;;;;;-4.05;100.00;99239.14;434314;1259;140719;-67
2024/01/06 20:12:28;;;;;;;;;;;;;;;-4.13;100.00;99248.61;434206;1257;140406;-68
2024/01/06 20:22:34;;;;;;;10.40;6.70;;;;;;;-4.18;100.00;99237.56;434148;1256;125961;-70
2024/01/06 20:32:40;;;;;;;10.40;6.70;;;;;;;-4.19;100.00;99245.60;434386;1259;139932;-71
2024/01/06 20:42:47;;;;;;;9.20;6.10;;;;;;;-4.24;100.00;99253.51;434232;1260;139946;-69
2024/01/06 20:52:53;;;;;;;7.50;5.70;;;;;;;-4.25;100.00;99249.93;434076;1260;139882;-68
2024/01/06 21:02:59;;;;;;;10.10;6.10;;;;;;;-4.26;100.00;99250.45;434121;1259;139334;-68
2024/01/06 21:13:06;;;;;;;7.40;5.20;;;;;;;-4.27;100.00;99260.36;435303;1254;140149;-67
2024/01/06 21:23:11;;;;;;;7.70;5.40;;;;;;;-4.27;100.00;99248.06;434164;1260;139618;-69
2024/01/06 21:33:18;;;;;;;8.40;5.70;;;;;;;-4.28;100.00;99253.89;434029;1259;139007;-68
2024/01/06 21:43:24;;;;;;;9.60;7.20;;;;;;;-4.35;100.00;99262.15;438561;1254;195484;-68
2024/01/06 21:53:30;;;;;;;7.80;5.80;;;;;;;-4.39;100.00;99272.77;434269;1260;140293;-68
2024/01/06 22:03:36;;;;;;;7.90;5.60;;;;;;;-4.42;100.00;99287.50;434483;1254;139811;-68
2024/01/06 22:13:42;;;;;;;11.80;7.00;;;;;;;-4.45;100.00;99280.86;434434;1260;139757;-68
2024/01/06 22:23:48;;;;;;;9.00;7.40;;;;;;;-4.46;100.00;99288.55;434396;1258;140214;-69
2024/01/06 22:33:53;;;;;;;8.80;6.60;;;;;;;-4.52;100.00;99298.68;434264;1255;141740;-68
2024/01/06 22:44:00;;;;;;;8.40;7.50;;;;;;;-4.58;100.00;99307.41;434083;1254;140063;-68
2024/01/06 22:54:06;;;;;;;11.40;8.80;;;;;;;-4.62;100.00;99327.27;434329;1254;139299;-69
2024/01/06 23:04:15;;;;;;;12.60;8.80;;;;;;;-4.71;100.00;99330.58;435044;1256;140990;-68
2024/01/06 23:14:21;;;;;;;10.50;7.60;;;;;;;-4.78;100.00;99335.23;434019;1257;140947;-68
2024/01/06 23:24:28;;;;;;;15.90;8.40;;;;;;;-4.87;100.00;99339.71;434191;1258;139860;-68
2024/01/06 23:34:34;;;;;;;10.30;7.90;;;;;;;-4.90;100.00;99342.46;433847;1258;139474;-68
2024/01/06 23:44:48;;;;;;;11.20;7.80;;;;;;;-4.94;100.00;99350.66;434037;1254;139854;-68
2024/01/06 23:54:53;;;;;;;13.50;9.30;;;;;;;-5.02;100.00;99346.27;434123;1254;139459;-68
